Time;durP1;ratioP1;P1;durP2;ratioP2;P2;SDS_P1;SDS_P2;PMS_P1;PMS_P2;Temp;Humidity;BMP_temperature;BMP_pressure;BME280_temperature;BME280_humidity;BME280_pressure;Samples;Min_cycle;Max_cycle;Signal;HPM_P1;HPM_P2
2023/04/08 00:01:53;;;;;;;8.88;7.20;;;11.00;99.90;;;;;;7390785;19;20139;-71
2023/04/08 00:04:19;;;;;;;10.00;7.37;;;11.00;99.90;;;;;;7387654;19;20648;-71
2023/04/08 00:06:45;;;;;;;9.07;7.10;;;11.00;99.90;;;;;;7389017;19;20123;-72
2023/04/08 00:09:11;;;;;;;10.77;6.93;;;11.00;99.90;;;;;;7389717;19;20173;-72
2023/04/08 00:11:36;;;;;;;9.30;7.13;;;10.90;99.90;;;;;;7393231;19;20138;-71
2023/04/08 00:14:03;;;;;;;9.80;6.87;;;10.50;99.90;;;;;;7391915;19;20587;-71
2023/04/08 00:16:29;;;;;;;9.20;6.80;;;10.60;99.90;;;;;;7390134;19;20150;-72
2023/04/08 00:18:55;;;;;;;10.17;7.13;;;10.70;99.90;;;;;;7390679;19;20138;-71
2023/04/08 00:21:22;;;;;;;10.30;7.43;;;10.60;99.90;;;;;;7389568;19;20162;-72
2023/04/08 00:23:48;;;;;;;10.70;6.93;;;10.70;99.90;;;;;;7385516;19;20142;-72
2023/04/08 00:26:14;;;;;;;8.70;6.70;;;10.80;99.90;;;;;;7381309;19;20167;-73
2023/04/08 00:28:41;;;;;;;9.30;6.80;;;10.80;99.90;;;;;;7389882;19;20175;-72
2023/04/08 00:31:07;;;;;;;10.97;7.43;;;10.90;99.90;;;;;;7391806;19;20138;-73
2023/04/08 00:33:33;;;;;;;10.50;7.70;;;10.90;99.90;;;;;;7390705;19;20154;-73
2023/04/08 00:35:59;;;;;;;9.40;6.77;;;10.90;99.90;;;;;;7387698;19;20213;-74
2023/04/08 00:38:25;;;;;;;10.70;7.37;;;10.90;99.90;;;;;;7389364;19;20142;-72
2023/04/08 00:40:50;;;;;;;9.03;7.00;;;10.90;99.90;;;;;;7388175;19;20530;-73
2023/04/08 00:43:19;;;;;;;10.47;7.37;;;10.90;99.90;;;;;;7391978;19;20138;-71
2023/04/08 00:45:48;;;;;;;11.17;7.37;;;10.90;99.90;;;;;;7388857;19;20155;-72
2023/04/08 00:48:14;;;;;;;9.40;6.90;;;10.90;99.90;;;;;;7389794;19;20158;-72
2023/04/08 00:50:41;;;;;;;10.77;6.53;;;11.00;99.90;;;;;;7388951;19;20135;-72
2023/04/08 00:53:07;;;;;;;8.37;6.53;;;10.90;99.90;;;;;;7389425;19;20166;-72
2023/04/08 00:55:33;;;;;;;11.30;6.77;;;10.80;99.90;;;;;;7388327;19;20142;-72
2023/04/08 00:57:59;;;;;;;10.70;7.37;;;10.90;99.90;;;;;;7387492;19;20581;-72
2023/04/08 01:00:25;;;;;;;8.40;6.50;;;10.90;99.90;;;;;;7390039;19;20142;-73
2023/04/08 01:02:56;;;;;;;10.13;6.60;;;11.00;99.90;;;;;;7387986;19;20173;-72
2023/04/08 01:05:45;;;;;;;8.80;6.60;;;11.00;99.90;;;;;;7389178;19;20166;-71
2023/04/08 01:08:11;;;;;;;8.73;6.70;;;11.00;99.90;;;;;;7388866;19;20217;-72
2023/04/08 01:10:41;;;;;;;8.63;6.60;;;10.90;99.90;;;;;;7388002;19;20178;-73
2023/04/08 01:13:16;;;;;;;7.63;6.43;;;10.90;99.90;;;;;;7390223;19;20151;-73
2023/04/08 01:15:43;;;;;;;8.60;6.60;;;10.90;99.90;;;;;;7388026;19;20149;-73
2023/04/08 01:18:12;;;;;;;8.65;6.63;;;10.90;99.90;;;;;;7388423;19;20146;-73
2023/04/08 01:20:40;;;;;;;10.27;7.37;;;10.90;99.90;;;;;;7389101;19;20180;-73
2023/04/08 01:23:19;;;;;;;8.03;6.33;;;10.90;99.90;;;;;;7387249;19;20184;-73
2023/04/08 01:25:55;;;;;;;8.02;6.03;;;10.80;99.90;;;;;;7387638;19;20521;-73
2023/04/08 01:28:24;;;;;;;8.63;6.83;;;10.80;99.90;;;;;;7387276;19;20158;-73
2023/04/08 01:30:51;;;;;;;9.10;6.67;;;10.90;99.90;;;;;;7389081;19;20146;-73
2023/04/08 01:33:18;;;;;;;8.60;6.50;;;10.80;99.90;;;;;;7388462;19;20162;-73
2023/04/08 01:35:45;;;;;;;9.23;6.53;;;10.80;99.90;;;;;;7387583;19;20163;-73
2023/04/08 01:38:16;;;;;;;10.30;6.50;;;10.70;99.90;;;;;;7389968;19;20190;-72
2023/04/08 01:40:45;;;;;;;8.90;6.23;;;10.70;99.90;;;;;;7386879;19;20983;-73
2023/04/08 01:43:13;;;;;;;8.57;7.10;;;10.80;99.90;;;;;;7389952;19;20210;-73
2023/04/08 01:45:39;;;;;;;9.87;6.60;;;10.80;99.90;;;;;;7387816;19;20141;-73
2023/04/08 01:48:06;;;;;;;9.57;7.27;;;10.80;99.90;;;;;;7388795;19;20558;-73
2023/04/08 01:50:33;;;;;;;9.23;6.97;;;10.80;99.90;;;;;;7388965;19;20465;-74
2023/04/08 01:53:01;;;;;;;9.53;6.63;;;10.80;99.90;;;;;;7383392;19;20134;-72
2023/04/08 01:55:28;;;;;;;8.73;6.93;;;10.80;99.90;;;;;;7388316;19;20135;-74
2023/04/08 01:57:58;;;;;;;10.53;6.50;;;10.80;99.90;;;;;;7389327;19;20131;-73
2023/04/08 02:00:27;;;;;;;9.97;7.33;;;10.80;99.90;;;;;;7387217;19;20131;-73
2023/04/08 02:02:54;;;;;;;9.80;6.43;;;10.80;99.90;;;;;;7386770;19;20225;-74
2023/04/08 02:05:20;;;;;;;8.63;6.50;;;10.80;99.90;;;;;;7386708;19;20135;-74
2023/04/08 02:07:47;;;;;;;11.63;7.47;;;10.90;99.90;;;;;;7388524;19;20136;-72
2023/04/08 02:10:13;;;;;;;11.23;7.40;;;10.80;99.90;;;;;;7386761;19;20158;-73
2023/04/08 02:12:39;;;;;;;11.57;8.07;;;10.60;99.90;;;;;;7381327;19;22084;-72
2023/04/08 02:15:05;;;;;;;10.30;7.67;;;10.60;99.90;;;;;;7388184;19;20153;-74
2023/04/08 02:17:40;;;;;;;11.33;7.70;;;10.50;99.90;;;;;;7388055;19;20468;-73
2023/04/08 02:20:13;;;;;;;9.93;7.43;;;10.60;99.90;;;;;;7387453;19;20174;-74
2023/04/08 02:23:13;;;;;;;12.00;7.43;;;10.50;99.90;;;;;;7386846;19;20135;-73
2023/04/08 02:25:43;;;;;;;9.20;6.63;;;10.50;99.90;;;;;;7386150;19;20147;-73
2023/04/08 02:28:10;;;;;;;9.30;6.90;;;10.60;99.90;;;;;;7391709;19;21431;-73
2023/04/08 02:30:47;;;;;;;9.37;7.37;;;10.60;99.90;;;;;;7393936;19;20126;-74
2023/04/08 02:33:14;;;;;;;9.50;7.07;;;10.60;99.90;;;;;;7395210;19;20132;-74
2023/04/08 02:35:40;;;;;;;9.77;7.33;;;10.70;99.90;;;;;;7396944;19;20201;-73
2023/04/08 02:38:08;;;;;;;10.90;7.53;;;10.70;99.90;;;;;;7396665;19;20547;-73
2023/04/08 02:40:34;;;;;;;10.80;7.70;;;10.80;99.90;;;;;;7393309;19;20142;-73
2023/04/08 02:43:00;;;;;;;9.90;7.00;;;10.60;99.90;;;;;;7395012;19;20162;-73
2023/04/08 02:45:31;;;;;;;11.83;7.87;;;10.60;99.90;;;;;;7394054;19;20127;-72
2023/04/08 02:47:59;;;;;;;10.57;8.07;;;10.70;99.90;;;;;;7397330;19;20131;-73
2023/04/08 02:50:24;;;;;;;10.23;7.77;;;10.60;99.90;;;;;;7395283;19;20139;-73
2023/04/08 02:52:50;;;;;;;10.27;7.47;;;10.60;99.90;;;;;;7393601;19;20143;-73
2023/04/08 02:55:16;;;;;;;10.53;8.07;;;10.50;99.90;;;;;;7393891;19;20225;-73
2023/04/08 02:57:42;;;;;;;14.93;8.33;;;10.20;99.90;;;;;;7395760;19;20119;-73
2023/04/08 03:00:08;;;;;;;11.23;8.10;;;10.30;99.90;;;;;;7393656;19;20491;-73
2023/04/08 03:02:35;;;;;;;12.80;8.03;;;10.50;99.90;;;;;;7393020;19;20314;-73
2023/04/08 03:05:00;;;;;;;11.97;8.03;;;10.40;99.90;;;;;;7394517;19;20152;-73
2023/04/08 03:07:26;;;;;;;13.20;8.43;;;10.50;99.90;;;;;;7390603;19;20127;-74
2023/04/08 03:09:54;;;;;;;13.70;8.03;;;10.50;99.90;;;;;;7390904;19;20146;-73
2023/04/08 03:12:21;;;;;;;11.83;7.63;;;10.40;99.90;;;;;;7391675;19;20150;-73
2023/04/08 03:14:46;;;;;;;12.13;7.33;;;10.40;99.90;;;;;;7393838;19;20454;-73
2023/04/08 03:17:12;;;;;;;10.87;8.23;;;10.50;99.90;;;;;;7393969;19;20144;-74
2023/04/08 03:19:38;;;;;;;14.37;8.50;;;10.50;99.90;;;;;;7395187;19;20134;-72
2023/04/08 03:22:04;;;;;;;11.57;7.90;;;10.50;99.90;;;;;;7394898;19;20127;-74
2023/04/08 03:24:29;;;;;;;16.20;8.90;;;10.50;99.90;;;;;;7393595;19;20165;-74
2023/04/08 03:26:55;;;;;;;15.33;8.37;;;10.50;99.90;;;;;;7391348;19;20135;-73
2023/04/08 03:29:21;;;;;;;13.40;8.43;;;10.60;99.90;;;;;;7392760;19;20138;-72
2023/04/08 03:31:47;;;;;;;14.17;8.70;;;10.40;99.90;;;;;;7391194;19;20131;-73
2023/04/08 03:34:12;;;;;;;12.97;8.83;;;10.50;99.90;;;;;;7392967;19;20142;-73
2023/04/08 03:36:38;;;;;;;12.30;8.13;;;10.50;99.90;;;;;;7394058;19;20529;-73
2023/04/08 03:39:04;;;;;;;12.20;8.20;;;10.50;99.90;;;;;;7390509;19;20211;-73
2023/04/08 03:41:30;;;;;;;15.00;8.93;;;10.40;99.90;;;;;;7390657;19;20186;-72
2023/04/08 03:43:56;;;;;;;13.07;8.60;;;10.50;99.90;;;;;;7391920;19;20615;-73
2023/04/08 03:46:22;;;;;;;13.37;7.73;;;10.60;99.90;;;;;;7392928;19;20219;-72
2023/04/08 03:48:48;;;;;;;12.07;8.20;;;10.50;99.90;;;;;;7391165;19;20630;-73
2023/04/08 03:51:14;;;;;;;11.07;8.07;;;10.50;99.90;;;;;;7392133;19;20182;-73
2023/04/08 03:53:39;;;;;;;12.90;8.30;;;10.50;99.90;;;;;;7390946;19;20157;-73
2023/04/08 03:56:08;;;;;;;14.30;7.37;;;10.50;99.90;;;;;;7393130;19;20138;-74
2023/04/08 03:58:34;;;;;;;14.63;7.97;;;10.50;99.90;;;;;;7390896;19;20154;-73
2023/04/08 04:01:00;;;;;;;13.53;8.53;;;10.50;99.90;;;;;;7391734;19;20131;-73
2023/04/08 04:03:25;;;;;;;12.50;7.80;;;10.50;99.90;;;;;;7391683;19;20135;-73
2023/04/08 04:05:51;;;;;;;15.00;8.77;;;10.50;99.90;;;;;;7390751;19;20186;-73
2023/04/08 04:08:17;;;;;;;15.03;8.10;;;10.50;99.90;;;;;;7392153;19;20146;-74
2023/04/08 04:10:43;;;;;;;14.60;8.53;;;10.40;99.90;;;;;;7389613;19;20607;-72
2023/04/08 04:13:09;;;;;;;12.40;7.80;;;10.40;99.90;;;;;;7390986;19;20174;-73
2023/04/08 04:15:39;;;;;;;12.63;8.20;;;10.30;99.90;;;;;;7393679;19;20147;-73
2023/04/08 04:18:05;;;;;;;13.13;8.47;;;10.30;99.90;;;;;;7391897;19;20618;-73
2023/04/08 04:20:31;;;;;;;15.13;8.63;;;10.30;99.90;;;;;;7392592;19;20142;-73
2023/04/08 04:22:57;;;;;;;15.87;8.50;;;10.30;99.90;;;;;;7389159;19;20131;-73
2023/04/08 04:25:23;;;;;;;14.67;8.77;;;10.30;99.90;;;;;;7390929;19;20201;-73
2023/04/08 04:27:49;;;;;;;14.77;8.27;;;10.40;99.90;;;;;;7388069;19;20138;-73
2023/04/08 04:30:15;;;;;;;12.47;8.53;;;10.40;99.90;;;;;;7392411;19;20230;-73
2023/04/08 04:32:42;;;;;;;14.20;8.57;;;10.40;99.90;;;;;;7389033;19;20146;-72
2023/04/08 04:35:11;;;;;;;15.73;9.57;;;10.30;99.90;;;;;;7391942;19;20139;-73
2023/04/08 04:37:37;;;;;;;15.17;10.03;;;10.30;99.90;;;;;;7389014;19;20142;-73
2023/04/08 04:40:04;;;;;;;15.27;9.23;;;10.10;99.90;;;;;;7388958;19;20155;-72
2023/04/08 04:42:30;;;;;;;13.30;8.97;;;10.20;99.90;;;;;;7388937;19;20146;-74
2023/04/08 04:44:56;;;;;;;15.57;8.73;;;10.20;99.90;;;;;;7389711;19;20579;-74
2023/04/08 04:47:22;;;;;;;13.07;8.77;;;10.10;99.90;;;;;;7390129;19;20139;-74
2023/04/08 04:49:48;;;;;;;17.03;9.30;;;10.20;99.90;;;;;;7386958;19;20188;-73
2023/04/08 04:52:13;;;;;;;13.97;8.37;;;10.20;99.90;;;;;;7388548;19;20146;-72
2023/04/08 04:54:39;;;;;;;13.23;9.03;;;10.00;99.90;;;;;;7389984;19;20210;-74
2023/04/08 04:57:05;;;;;;;16.47;9.67;;;10.20;99.90;;;;;;7389187;19;20160;-71
2023/04/08 04:59:31;;;;;;;14.77;9.40;;;10.20;99.90;;;;;;7389811;19;20150;-73
2023/04/08 05:01:57;;;;;;;14.33;8.97;;;10.20;99.90;;;;;;7390321;19;20202;-72
2023/04/08 05:04:23;;;;;;;15.00;9.17;;;10.20;99.90;;;;;;7390120;19;20149;-72
2023/04/08 05:06:49;;;;;;;14.53;8.97;;;10.10;99.90;;;;;;7386792;19;20151;-73
2023/04/08 05:09:15;;;;;;;14.13;9.40;;;10.20;99.90;;;;;;7390821;19;20141;-73
2023/04/08 05:11:41;;;;;;;16.13;9.80;;;10.20;99.90;;;;;;7388802;19;20463;-72
2023/04/08 05:14:07;;;;;;;12.93;8.90;;;10.10;99.90;;;;;;7389846;19;20138;-73
2023/04/08 05:16:33;;;;;;;15.70;10.13;;;10.20;99.90;;;;;;7387609;19;20143;-73
2023/04/08 05:18:59;;;;;;;14.33;9.57;;;10.20;99.90;;;;;;7389523;19;20627;-72
2023/04/08 05:21:26;;;;;;;15.10;10.13;;;10.20;99.90;;;;;;7387659;19;20138;-73
2023/04/08 05:23:53;;;;;;;17.00;11.00;;;10.20;99.90;;;;;;7388958;19;20139;-72
2023/04/08 05:26:22;;;;;;;14.20;9.47;;;10.20;99.90;;;;;;7387046;19;20629;-74
2023/04/08 05:28:48;;;;;;;13.43;9.33;;;10.20;99.90;;;;;;7389811;19;20148;-73
2023/04/08 05:31:18;;;;;;;15.67;9.40;;;10.20;99.90;;;;;;7387884;19;20183;-73
2023/04/08 05:33:44;;;;;;;15.20;9.83;;;10.20;99.90;;;;;;7392628;19;20158;-75
2023/04/08 05:36:11;;;;;;;18.23;10.03;;;10.20;99.90;;;;;;7390688;19;20138;-73
2023/04/08 05:38:37;;;;;;;18.17;10.97;;;10.20;99.90;;;;;;7388984;19;20139;-74
2023/04/08 05:41:03;;;;;;;16.10;10.50;;;10.20;99.90;;;;;;7386917;19;20154;-74
2023/04/08 05:43:29;;;;;;;16.37;9.90;;;10.20;99.90;;;;;;7387485;19;20159;-73
2023/04/08 05:45:55;;;;;;;15.43;10.13;;;10.10;99.90;;;;;;7389178;19;20147;-73
2023/04/08 05:48:20;;;;;;;15.67;10.30;;;10.10;99.90;;;;;;7388559;19;20154;-74
2023/04/08 05:50:47;;;;;;;15.93;10.00;;;10.10;99.90;;;;;;7399134;19;20514;-72
2023/04/08 05:53:13;;;;;;;15.30;9.90;;;10.10;99.90;;;;;;7387434;19;20163;-72
2023/04/08 05:55:39;;;;;;;15.93;9.60;;;10.10;99.90;;;;;;7385990;19;20162;-74
2023/04/08 05:58:06;;;;;;;16.67;10.53;;;10.10;99.90;;;;;;7387067;19;20529;-74
2023/04/08 06:00:32;;;;;;;14.57;9.77;;;10.10;99.90;;;;;;7385200;19;20159;-74
2023/04/08 06:02:58;;;;;;;14.43;9.97;;;10.10;99.90;;;;;;7386435;19;20180;-73
2023/04/08 06:05:24;;;;;;;15.93;10.57;;;10.10;99.90;;;;;;7384689;19;20153;-74
2023/04/08 06:07:50;;;;;;;14.83;10.80;;;10.20;99.90;;;;;;7383721;19;20173;-74
2023/04/08 06:10:16;;;;;;;15.77;10.80;;;10.30;99.90;;;;;;7388370;19;20142;-73
2023/04/08 06:12:42;;;;;;;15.97;10.03;;;10.30;99.90;;;;;;7385770;19;20507;-74
2023/04/08 06:15:09;;;;;;;17.00;10.97;;;10.30;99.90;;;;;;7385978;19;20160;-74
2023/04/08 06:17:38;;;;;;;16.50;10.37;;;10.30;99.90;;;;;;7384747;19;20134;-75
2023/04/08 06:20:05;;;;;;;16.40;11.30;;;10.30;99.90;;;;;;7386848;19;20139;-73
2023/04/08 06:22:31;;;;;;;17.70;10.93;;;10.30;99.90;;;;;;7385058;19;20718;-74
2023/04/08 06:24:56;;;;;;;15.70;10.00;;;10.30;99.90;;;;;;7384692;19;20171;-75
2023/04/08 06:27:22;;;;;;;16.47;10.40;;;10.20;99.90;;;;;;7385120;19;20142;-74
2023/04/08 06:29:48;;;;;;;14.23;10.23;;;10.20;99.90;;;;;;7383411;19;20189;-73
2023/04/08 06:32:14;;;;;;;15.40;10.43;;;10.20;99.90;;;;;;7383626;19;20182;-73
2023/04/08 06:34:40;;;;;;;15.67;11.00;;;10.30;99.90;;;;;;7384486;19;20165;-74
2023/04/08 06:37:06;;;;;;;14.00;9.37;;;10.40;99.90;;;;;;7383967;19;20231;-74
2023/04/08 06:39:32;;;;;;;14.53;9.77;;;10.40;99.90;;;;;;7384030;19;20198;-74
2023/04/08 06:41:58;;;;;;;13.40;8.97;;;10.50;99.90;;;;;;7380922;19;20198;-73
2023/04/08 06:44:24;;;;;;;16.63;10.57;;;10.50;99.90;;;;;;7388286;19;20138;-73
2023/04/08 06:46:50;;;;;;;15.33;10.50;;;10.50;99.90;;;;;;7386187;19;20135;-75
2023/04/08 06:49:15;;;;;;;15.77;10.07;;;10.50;99.90;;;;;;7386451;19;20143;-74
2023/04/08 06:51:41;;;;;;;15.57;10.33;;;10.60;99.90;;;;;;7385496;19;20139;-73
2023/04/08 06:54:08;;;;;;;15.83;9.47;;;10.60;99.90;;;;;;7384894;19;20135;-72
2023/04/08 06:56:35;;;;;;;14.07;9.27;;;10.30;99.90;;;;;;7384506;19;20265;-73
2023/04/08 06:59:02;;;;;;;14.00;10.03;;;10.40;99.90;;;;;;7385712;19;20556;-73
2023/04/08 07:01:27;;;;;;;13.67;8.87;;;10.40;99.90;;;;;;7385387;19;20517;-73
2023/04/08 07:03:53;;;;;;;13.20;9.50;;;10.40;99.90;;;;;;7385989;19;20163;-74
2023/04/08 07:06:19;;;;;;;14.33;9.63;;;10.50;99.90;;;;;;7385585;19;20165;-73
2023/04/08 07:08:45;;;;;;;13.50;9.37;;;10.50;99.90;;;;;;7386448;19;20202;-73
2023/04/08 07:11:11;;;;;;;14.00;8.47;;;10.50;99.90;;;;;;7384143;19;20146;-74
2023/04/08 07:13:37;;;;;;;14.03;9.33;;;10.40;99.90;;;;;;7388192;19;20134;-73
2023/04/08 07:16:03;;;;;;;17.27;10.10;;;10.40;99.90;;;;;;7393148;19;20150;-74
2023/04/08 07:18:29;;;;;;;11.27;8.10;;;10.50;99.90;;;;;;7391473;19;20150;-74
2023/04/08 07:20:56;;;;;;;13.20;9.17;;;10.40;99.90;;;;;;7394389;19;20149;-74
2023/04/08 07:23:22;;;;;;;14.40;9.63;;;10.40;99.90;;;;;;7389429;19;20135;-74
2023/04/08 07:25:48;;;;;;;14.47;10.03;;;10.30;99.90;;;;;;7391471;19;20142;-74
2023/04/08 07:28:14;;;;;;;12.83;8.43;;;10.30;99.90;;;;;;7391428;19;20138;-74
2023/04/08 07:30:40;;;;;;;13.80;9.10;;;10.40;99.90;;;;;;7393512;19;20158;-75
2023/04/08 07:33:06;;;;;;;11.90;8.13;;;10.40;99.90;;;;;;7391262;19;20171;-74
2023/04/08 07:35:33;;;;;;;12.17;8.47;;;10.50;99.90;;;;;;7394045;19;20146;-74
2023/04/08 07:37:59;;;;;;;12.17;8.40;;;10.60;99.90;;;;;;7390868;19;20648;-73
2023/04/08 07:40:25;;;;;;;10.97;8.03;;;10.70;99.90;;;;;;7390138;19;20147;-75
2023/04/08 07:42:50;;;;;;;10.87;8.03;;;10.80;99.90;;;;;;7391359;19;20154;-76
2023/04/08 07:45:16;;;;;;;12.07;7.93;;;10.80;99.90;;;;;;7390584;19;20134;-74
2023/04/08 07:47:43;;;;;;;11.93;7.80;;;10.90;99.90;;;;;;7385938;19;20154;-74
2023/04/08 07:50:09;;;;;;;10.60;8.10;;;10.90;99.90;;;;;;7392364;19;20139;-72
2023/04/08 07:52:35;;;;;;;11.07;7.93;;;10.90;99.90;;;;;;7389092;19;20149;-74
2023/04/08 07:55:00;;;;;;;11.73;7.87;;;11.00;99.90;;;;;;7390549;19;20608;-75
2023/04/08 07:57:26;;;;;;;10.73;8.43;;;11.00;99.90;;;;;;7390022;19;20210;-75
2023/04/08 07:59:52;;;;;;;11.53;8.27;;;11.30;99.90;;;;;;7390337;19;20146;-74
2023/04/08 08:02:18;;;;;;;10.70;7.40;;;11.20;99.90;;;;;;7387713;19;20143;-74
2023/04/08 08:04:44;;;;;;;11.90;8.57;;;11.30;99.90;;;;;;7388733;19;20150;-74
2023/04/08 08:07:09;;;;;;;11.17;8.03;;;11.40;99.90;;;;;;7385491;19;20567;-75
2023/04/08 08:09:35;;;;;;;9.70;7.37;;;11.40;99.90;;;;;;7388028;19;20170;-75
2023/04/08 08:12:01;;;;;;;9.93;7.63;;;11.50;99.90;;;;;;7388329;19;20225;-75
2023/04/08 08:14:27;;;;;;;10.13;7.43;;;11.40;99.90;;;;;;7387344;19;20152;-75
2023/04/08 08:16:53;;;;;;;12.10;7.57;;;11.40;99.90;;;;;;7386918;19;20145;-75
2023/04/08 08:19:20;;;;;;;9.97;7.53;;;11.40;99.90;;;;;;7386749;19;20135;-74
2023/04/08 08:21:47;;;;;;;10.80;7.80;;;11.40;99.90;;;;;;7387784;19;20592;-75
2023/04/08 08:24:13;;;;;;;10.07;7.67;;;11.30;99.90;;;;;;7386033;19;20145;-74
2023/04/08 08:26:39;;;;;;;9.63;7.07;;;11.20;99.90;;;;;;7386654;19;20607;-74
2023/04/08 08:29:07;;;;;;;10.83;7.40;;;11.30;99.90;;;;;;7387812;19;20147;-75
2023/04/08 08:31:33;;;;;;;11.20;8.27;;;11.50;99.90;;;;;;7385764;19;20154;-73
2023/04/08 08:33:59;;;;;;;9.80;7.50;;;11.60;99.90;;;;;;7388919;19;20231;-74
2023/04/08 08:36:28;;;;;;;9.20;7.23;;;11.40;99.90;;;;;;7389052;19;20142;-74
2023/04/08 08:38:53;;;;;;;11.73;8.47;;;11.50;99.90;;;;;;7388906;19;20574;-76
2023/04/08 08:41:20;;;;;;;11.30;8.27;;;11.60;99.90;;;;;;7384469;19;20181;-77
2023/04/08 08:43:46;;;;;;;12.10;8.73;;;11.70;99.90;;;;;;7390446;19;20134;-77
2023/04/08 08:46:15;;;;;;;10.80;7.90;;;11.70;99.90;;;;;;7388817;19;20155;-78
2023/04/08 08:48:41;;;;;;;11.60;8.20;;;11.80;99.90;;;;;;7388299;19;20145;-77
2023/04/08 08:51:11;;;;;;;10.17;7.73;;;11.80;99.90;;;;;;7389659;19;20207;-78
2023/04/08 08:53:37;;;;;;;13.23;7.97;;;11.90;99.90;;;;;;7392121;19;20153;-78
2023/04/08 08:56:04;;;;;;;9.87;7.10;;;11.90;99.90;;;;;;7392328;19;20599;-77
2023/04/08 08:58:30;;;;;;;10.47;7.63;;;12.00;99.90;;;;;;7390485;19;20649;-77
2023/04/08 09:00:55;;;;;;;10.53;7.77;;;12.30;99.90;;;;;;7389775;19;20131;-77
2023/04/08 09:03:23;;;;;;;9.70;7.57;;;12.50;99.90;;;;;;7391388;19;20138;-76
2023/04/08 09:05:51;;;;;;;9.65;7.47;;;12.60;99.90;;;;;;7391370;19;20135;-77
2023/04/08 09:08:33;;;;;;;13.30;8.20;;;12.60;99.90;;;;;;7389722;19;20160;-77
2023/04/08 09:11:11;;;;;;;8.63;6.97;;;12.60;99.90;;;;;;7390803;19;20163;-77
2023/04/08 09:13:37;;;;;;;8.33;7.00;;;12.40;99.90;;;;;;7389660;19;20170;-76
2023/04/08 09:16:05;;;;;;;9.13;7.27;;;12.10;99.90;;;;;;7388778;19;20131;-76
2023/04/08 09:18:32;;;;;;;9.43;7.20;;;12.30;99.90;;;;;;7389393;19;20658;-77
2023/04/08 09:21:02;;;;;;;11.57;8.37;;;12.50;99.90;;;;;;7388811;19;20174;-77
2023/04/08 09:23:42;;;;;;;10.63;7.15;;;12.40;99.90;;;;;;7389295;19;20147;-77
2023/04/08 09:26:12;;;;;;;11.67;8.37;;;12.50;99.90;;;;;;7388074;19;20134;-76
2023/04/08 09:28:39;;;;;;;10.37;7.37;;;12.50;99.90;;;;;;7391430;19;20170;-77
2023/04/08 09:31:22;;;;;;;11.30;7.80;;;12.60;99.90;;;;;;7384023;19;20214;-76
2023/04/08 09:34:03;;;;;;;10.20;7.37;;;12.60;99.90;;;;;;7384766;19;20142;-78
2023/04/08 09:36:31;;;;;;;11.90;7.50;;;12.70;99.90;;;;;;7387251;19;20682;-78
2023/04/08 09:38:57;;;;;;;9.40;7.00;;;12.80;99.90;;;;;;7387431;19;20162;-77
2023/04/08 09:41:26;;;;;;;9.80;7.47;;;12.80;99.90;;;;;;7387360;19;20211;-77
2023/04/08 09:43:54;;;;;;;9.03;7.63;;;12.90;99.90;;;;;;7389295;19;20205;-77
2023/04/08 09:46:49;;;;;;;10.25;7.05;;;12.90;99.90;;;;;;7390134;19;20549;-78
2023/04/08 09:49:39;;;;;;;9.17;7.00;;;12.90;99.90;;;;;;7395542;19;20131;-77
2023/04/08 09:52:29;;;;;;;7.97;7.13;;;12.90;99.90;;;;;;7402887;19;20143;-77
2023/04/08 09:54:57;;;;;;;9.27;7.27;;;12.90;99.90;;;;;;7401067;19;20138;-76
2023/04/08 09:57:32;;;;;;;9.03;6.97;;;12.80;99.90;;;;;;7403316;19;20142;-76
2023/04/08 10:00:09;;;;;;;9.30;7.17;;;12.90;99.90;;;;;;7390882;19;20126;-77
2023/04/08 10:02:58;;;;;;;9.63;6.72;;;12.90;99.90;;;;;;7394687;19;20177;-77
2023/04/08 10:05:25;;;;;;;9.90;6.90;;;12.90;99.90;;;;;;7387126;19;20146;-77
2023/04/08 10:07:52;;;;;;;9.93;7.17;;;13.10;99.90;;;;;;7387450;19;20258;-77
2023/04/08 10:10:18;;;;;;;9.20;7.03;;;13.40;99.90;;;;;;7386182;19;20131;-77
2023/04/08 10:12:44;;;;;;;10.10;7.90;;;13.50;99.90;;;;;;7388153;19;20141;-77
2023/04/08 10:15:25;;;;;;;9.57;7.50;;;13.40;99.90;;;;;;7387305;19;20135;-77
2023/04/08 10:17:52;;;;;;;9.32;7.20;;;13.50;99.90;;;;;;7387852;19;20127;-77
2023/04/08 10:20:33;;;;;;;10.82;7.05;;;13.50;99.90;;;;;;7386712;19;20156;-77
2023/04/08 10:23:00;;;;;;;8.10;6.70;;;13.40;99.90;;;;;;7386899;19;20142;-76
2023/04/08 10:25:43;;;;;;;10.20;7.15;;;13.40;99.90;;;;;;7388445;19;20145;-77
2023/04/08 10:28:12;;;;;;;10.15;6.75;;;13.20;99.90;;;;;;7385775;19;20178;-76
2023/04/08 10:30:39;;;;;;;8.75;7.07;;;13.10;99.90;;;;;;7385807;19;20169;-77
2023/04/08 10:33:12;;;;;;;11.23;7.22;;;13.10;99.90;;;;;;7385331;19;20927;-76
2023/04/08 10:35:52;;;;;;;8.53;6.97;;;13.10;99.90;;;;;;7382885;19;20484;-76
2023/04/08 10:38:19;;;;;;;8.70;7.30;;;13.10;99.90;;;;;;7378663;19;20136;-77
2023/04/08 10:40:46;;;;;;;8.93;6.93;;;13.00;99.90;;;;;;7381599;19;20197;-77
2023/04/08 10:43:13;;;;;;;10.10;7.20;;;12.80;99.90;;;;;;7382882;19;20171;-77
2023/04/08 10:45:39;;;;;;;9.13;6.80;;;12.80;99.90;;;;;;7377722;19;20146;-76
2023/04/08 10:48:21;;;;;;;8.93;7.47;;;12.70;99.90;;;;;;7384277;19;20257;-76
2023/04/08 10:50:57;;;;;;;8.60;6.55;;;12.70;99.90;;;;;;7391281;19;20209;-77
2023/04/08 10:53:33;;;;;;;8.77;6.97;;;12.70;99.90;;;;;;7391980;19;20159;-77
2023/04/08 10:56:28;;;;;;;11.47;8.50;;;12.60;99.90;;;;;;7392375;19;20611;-77
2023/04/08 10:58:58;;;;;;;8.55;7.47;;;12.60;99.90;;;;;;7389901;19;20445;-76
2023/04/08 11:01:25;;;;;;;8.93;6.77;;;12.60;99.90;;;;;;7390803;19;20135;-76
2023/04/08 11:03:50;;;;;;;9.23;7.03;;;12.50;99.90;;;;;;7392939;19;20635;-76
2023/04/08 11:06:17;;;;;;;11.13;7.43;;;12.50;99.90;;;;;;7390749;19;20155;-79
2023/04/08 11:08:46;;;;;;;9.15;7.22;;;12.50;99.90;;;;;;7391152;19;20165;-76
2023/04/08 11:11:12;;;;;;;9.53;6.87;;;12.50;99.90;;;;;;7391824;19;20134;-75
2023/04/08 11:13:43;;;;;;;10.60;7.17;;;12.60;99.90;;;;;;7393753;19;20336;-76
2023/04/08 11:16:09;;;;;;;9.10;7.05;;;12.60;99.90;;;;;;7392880;19;20143;-76
2023/04/08 11:18:38;;;;;;;8.40;6.57;;;12.60;99.90;;;;;;7392819;19;20697;-77
2023/04/08 11:21:08;;;;;;;12.40;6.78;;;12.60;99.90;;;;;;7393386;19;20534;-76
2023/04/08 11:23:38;;;;;;;8.75;6.82;;;12.70;99.90;;;;;;7393109;19;20141;-76
2023/04/08 11:26:04;;;;;;;8.80;6.90;;;12.70;99.90;;;;;;7391871;19;20142;-76
2023/04/08 11:28:30;;;;;;;9.27;7.05;;;12.70;99.90;;;;;;7392094;19;20198;-76
2023/04/08 11:30:56;;;;;;;10.33;6.97;;;12.60;99.90;;;;;;7394665;19;20150;-76
2023/04/08 11:33:28;;;;;;;9.40;6.13;;;12.60;99.90;;;;;;7392640;19;20131;-76
2023/04/08 11:35:54;;;;;;;10.07;7.17;;;12.50;99.90;;;;;;7383129;19;20154;-77
2023/04/08 11:38:23;;;;;;;9.23;6.90;;;12.50;99.90;;;;;;7391016;19;20273;-76
2023/04/08 11:40:54;;;;;;;8.30;6.93;;;12.50;99.90;;;;;;7390776;19;20142;-76
2023/04/08 11:43:20;;;;;;;8.27;6.40;;;12.50;99.90;;;;;;7391470;19;20222;-76
2023/04/08 11:45:46;;;;;;;8.60;6.73;;;12.40;99.90;;;;;;7392046;19;20166;-75
2023/04/08 11:48:14;;;;;;;9.00;6.90;;;12.40;99.90;;;;;;7394659;19;20138;-76
2023/04/08 11:50:40;;;;;;;9.00;7.17;;;12.60;99.90;;;;;;7390807;19;20568;-76
2023/04/08 11:53:19;;;;;;;8.77;6.73;;;12.50;99.90;;;;;;7391994;19;20566;-75
2023/04/08 11:55:45;;;;;;;7.75;6.50;;;12.40;99.90;;;;;;7392398;19;21375;-76
2023/04/08 11:58:11;;;;;;;7.77;6.13;;;12.40;99.90;;;;;;7391843;19;20168;-76
2023/04/08 12:00:37;;;;;;;7.10;6.17;;;12.60;99.90;;;;;;7390915;19;20138;-76
2023/04/08 12:03:03;;;;;;;8.27;6.33;;;12.60;99.90;;;;;;7391943;19;20517;-77
2023/04/08 12:05:29;;;;;;;9.07;6.60;;;12.60;99.90;;;;;;7391416;19;20266;-77
2023/04/08 12:07:55;;;;;;;7.97;5.80;;;12.60;99.90;;;;;;7387564;19;20133;-76
2023/04/08 12:10:21;;;;;;;7.53;6.50;;;12.70;99.90;;;;;;7391490;19;20214;-75
2023/04/08 12:12:47;;;;;;;7.93;5.93;;;12.60;99.90;;;;;;7392899;19;20214;-77
2023/04/08 12:15:12;;;;;;;9.00;6.90;;;12.60;99.90;;;;;;7392174;19;20142;-77
2023/04/08 12:17:38;;;;;;;7.87;6.17;;;12.60;99.90;;;;;;7393123;19;20146;-78
2023/04/08 12:20:08;;;;;;;8.43;6.63;;;12.60;99.90;;;;;;7390339;19;20856;-78
2023/04/08 12:22:33;;;;;;;8.50;6.70;;;12.70;99.90;;;;;;7393503;19;20148;-77
2023/04/08 12:25:01;;;;;;;8.50;6.20;;;12.60;99.90;;;;;;7390062;19;20130;-77
2023/04/08 12:27:27;;;;;;;9.67;6.40;;;12.50;99.90;;;;;;7388228;19;20145;-77
2023/04/08 12:29:54;;;;;;;12.57;6.67;;;12.50;99.90;;;;;;7389880;19;20142;-78
2023/04/08 12:32:20;;;;;;;11.37;6.80;;;12.50;99.90;;;;;;7390198;19;20154;-79
2023/04/08 12:34:46;;;;;;;8.97;6.37;;;12.50;99.90;;;;;;7392098;19;20138;-79
2023/04/08 12:37:12;;;;;;;9.40;6.73;;;12.50;99.90;;;;;;7390871;19;20149;-76
2023/04/08 12:39:38;;;;;;;7.27;6.10;;;12.40;99.90;;;;;;7390093;19;20135;-77
2023/04/08 12:42:04;;;;;;;8.37;6.43;;;12.40;99.90;;;;;;7388933;19;20186;-78
2023/04/08 12:44:30;;;;;;;9.73;6.87;;;12.40;99.90;;;;;;7388469;19;20163;-76